Pioneer Knutsen — LMIK — position and weather

sailwx.info

Track history (hours):
 
Tides and Currents Weather Stations Pressure Air Temp Water Temp Dewpoint Dewpoint Depression Visibility Wind Speed Wind Dir Waves Ship Positions

Pioneer Knutsen

Last reported at 2015-Jul-04 20:33 UTC. Time now 2015-Jul-04 20:43 UTC.
Position N 64°55' E 011°21'.

Length 70 m; draft 3.6 m.

Type: Tanker. MMSI: 259393000.

Date/timePositionNaut miles runAvg speedWind from/ knotsBaromVisibWave heightAir tempDewpointWater temp
2015-Jul-04 20:33N 64°55' E 011°21'1212.3
2015-Jul-04 19:33N 65°03' E 011°43'19 1.1
2015-Jul-04 03:03N 65°20' E 012°01'612.3
2015-Jul-04 02:34N 65°14' E 011°55'1212.4
2015-Jul-04 01:33N 65°03' E 011°44'1212.4
2015-Jul-04 00:33N 64°55' E 011°22'1312.6
2015-Jul-03 23:31N 64°45' E 011°01'4511.0
2015-Jul-03 19:24N 64°07' E 010°03'1012.1
2015-Jul-03 18:33N 64°00' E 009°47'1211.7
2015-Jul-03 17:33N 63°49' E 009°36'1 0.8
2015-Jul-03 16:28N 63°49' E 009°38'0 0.0
2015-Jul-03 15:33N 63°49' E 009°38'0 0.0
2015-Jul-03 14:33N 63°49' E 009°38'10 9.7
2015-Jul-03 13:34N 63°40' E 009°29'  
2015-Jul-01 02:33N 63°35' E 009°25'1211.5
2015-Jul-01 01:33N 63°46' E 009°33'1111.4
2015-Jul-01 00:33N 63°56' E 009°47'5711.3
2015-Jun-30 19:33N 64°44' E 010°56'1211.5
2015-Jun-30 18:33N 64°52' E 011°16'1211.9
2015-Jun-30 17:33N 64°60' E 011°36'1412.1
2015-Jun-30 16:24N 65°12' E 011°53'11 0.6
2015-Jun-29 23:28N 65°22' E 012°04'1011.5
2015-Jun-29 22:33N 65°12' E 011°53'1111.4
2015-Jun-29 21:33N 65°02' E 011°42'1212.2
2015-Jun-29 20:33N 64°54' E 011°20'1212.0
2015-Jun-29 19:33N 64°45' E 011°00'4710.9
2015-Jun-29 15:15N 64°06' E 010°00'811.3
2015-Jun-29 14:33N 64°01' E 009°47'1111.0
2015-Jun-29 13:33N 63°51' E 009°38'1211.9
2015-Jun-29 12:34N 63°40' E 009°29'  
2015-Jun-26 21:11N 63°09' E 007°50'5311.4
2015-Jun-26 16:33N 63°38' E 009°29'1111.4
2015-Jun-26 15:34N 63°49' E 009°38'0 0.3
2015-Jun-26 14:32N 63°49' E 009°38'0 0.0
2015-Jun-26 13:31N 63°49' E 009°38'0 0.0
2015-Jun-26 12:31N 63°49' E 009°38'3 3.6
2015-Jun-26 11:33N 63°46' E 009°33'6011.9
2015-Jun-26 06:31N 63°10' E 007°46'  
Track history (hours):
 
Tides and Currents Weather Stations Pressure Air Temp Water Temp Dewpoint Dewpoint Depression Visibility Wind Speed Wind Dir Waves Ship Positions

Pioneer Knutsen

Last reported at 2015-Jul-04 20:33 UTC. Time now 2015-Jul-04 20:43 UTC.
Position N 64°55' E 011°21'.

Length 70 m; draft 3.6 m.

Type: Tanker. MMSI: 259393000.

Date/timePositionNaut miles runAvg speedWind from/ knotsBaromVisibWave heightAir tempDewpointWater temp
2015-Jul-04 20:33N 64°55' E 011°21'1212.3
2015-Jul-04 19:33N 65°03' E 011°43'19 1.1
2015-Jul-04 03:03N 65°20' E 012°01'612.3
2015-Jul-04 02:34N 65°14' E 011°55'1212.4
2015-Jul-04 01:33N 65°03' E 011°44'1212.4
2015-Jul-04 00:33N 64°55' E 011°22'1312.6
2015-Jul-03 23:31N 64°45' E 011°01'4511.0
2015-Jul-03 19:24N 64°07' E 010°03'1012.1
2015-Jul-03 18:33N 64°00' E 009°47'1211.7
2015-Jul-03 17:33N 63°49' E 009°36'1 0.8
2015-Jul-03 16:28N 63°49' E 009°38'0 0.0
2015-Jul-03 15:33N 63°49' E 009°38'0 0.0
2015-Jul-03 14:33N 63°49' E 009°38'10 9.7
2015-Jul-03 13:34N 63°40' E 009°29'  
2015-Jul-01 02:33N 63°35' E 009°25'1211.5
2015-Jul-01 01:33N 63°46' E 009°33'1111.4
2015-Jul-01 00:33N 63°56' E 009°47'5711.3
2015-Jun-30 19:33N 64°44' E 010°56'1211.5
2015-Jun-30 18:33N 64°52' E 011°16'1211.9
2015-Jun-30 17:33N 64°60' E 011°36'1412.1
2015-Jun-30 16:24N 65°12' E 011°53'11 0.6
2015-Jun-29 23:28N 65°22' E 012°04'1011.5
2015-Jun-29 22:33N 65°12' E 011°53'1111.4
2015-Jun-29 21:33N 65°02' E 011°42'1212.2
2015-Jun-29 20:33N 64°54' E 011°20'1212.0
2015-Jun-29 19:33N 64°45' E 011°00'4710.9
2015-Jun-29 15:15N 64°06' E 010°00'811.3
2015-Jun-29 14:33N 64°01' E 009°47'1111.0
2015-Jun-29 13:33N 63°51' E 009°38'1211.9
2015-Jun-29 12:34N 63°40' E 009°29'  
2015-Jun-26 21:11N 63°09' E 007°50'5311.4
2015-Jun-26 16:33N 63°38' E 009°29'1111.4
2015-Jun-26 15:34N 63°49' E 009°38'0 0.3
2015-Jun-26 14:32N 63°49' E 009°38'0 0.0
2015-Jun-26 13:31N 63°49' E 009°38'0 0.0
2015-Jun-26 12:31N 63°49' E 009°38'3 3.6
2015-Jun-26 11:33N 63°46' E 009°33'6011.9
2015-Jun-26 06:31N 63°10' E 007°46'  

Dump ship's entire track history